Liberal, KS (67901)

2:07 AM CST on February 14, 2016 (GMT -0600)
Bozarth Farm 3.5E Liberal | | Change Station
CLOSE
Current Station
Personal Weather Station
Location: Liberal, KS
Elevation: 2785 ft
Nearby Weather Stations

Elev 2785 ft 37.02 °N, 100.86 °W | Updated 41 seconds ago

Clear
Clear
30.4 °F
Feels Like 22 °F
N
9.0
Wind Variable Wind from North
Gusts 17.0 mph

Today
High -- | Low -- °F
--% Chance of Precip.
Yesterday
High -- | Low -- °F
Precip. -- in
Pressure 29.96 in
Visibility 10.0 miles
Clouds Clear
Windchill 22 °F
Dew Point 27 °F
Humidity 87%
Rainfall 0.00 in
Snow Depth Not available.
7:33 AM 6:22 PM
Waxing Crescent, 39% visible
METAR KLBL 140755Z 33018G25KT 10SM CLR M01/M05 A2996 RMK AO1
Pressure 29.96 in
Visibility 10.0 miles
Clouds Clear
Windchill 22 °F
Dew Point 27 °F
Humidity 87%
Rainfall 0.00 in
Snow Depth Not available.
7:33 AM 6:22 PM
Waxing Crescent, 39% visible
METAR KLBL 140755Z 33018G25KT 10SM CLR M01/M05 A2996 RMK AO1

10-Day Weather Forecast

Almanac

Astronomy

Feb. 14, 2016 Rise Set
Actual Time
Civil Twilight
Nautical Twilight
Astronomical Twilight
Moon
Length of Visible Light
Length of Day
Tomorrow will be .
, % of the Moon is Illuminated

Today's Extremes

State Highs State Lows

Community

WunderPhotos

Upload Photos

1,892,757 photos uploaded!

WunderBlog® & News

Nearby

Air Quality

  Air Quality AQ Index Pollutant
Not available.

Snow Depth

Station Depth Elevation

Earthquake Activity

City Distance Mag. Time & Date
Minimum magnitude displayed is 2.5.

Coastal Water Temperatures

Place Temperature

Stations

Nearby Weather Stations

Station Location Temp. Windchill Dew Point Humidity Wind Precip. Elev Updated Type
                   

Watches & Warnings

There are currently no watches in effect.